TimeCST,TemperatureF,Dew PointF,Humidity,Sea Level PressureIn,VisibilityMPH,Wind Direction,Wind SpeedMPH,Gust SpeedMPH,PrecipitationIn,Events,Conditions,WindDirDegrees,DateUTC
12:53 AM,30.9,21.0,67,30.42,10.0,NW,4.6,-,N/A,,Clear,320,2013-03-06 06:53:00
1:53 AM,26.1,21.0,81,30.43,10.0,NNE,8.1,-,N/A,,Clear,20,2013-03-06 07:53:00
2:53 AM,24.1,19.0,81,30.42,10.0,North,6.9,-,N/A,,Clear,10,2013-03-06 08:53:00
3:53 AM,21.9,18.0,85,30.42,10.0,Calm,Calm,-,N/A,,Clear,0,2013-03-06 09:53:00
4:53 AM,23.0,19.9,88,30.42,10.0,Calm,Calm,-,N/A,,Clear,0,2013-03-06 10:53:00
5:53 AM,21.0,16.0,81,30.42,10.0,Calm,Calm,-,N/A,,Clear,0,2013-03-06 11:53:00
6:53 AM,21.9,18.0,85,30.43,10.0,Calm,Calm,-,N/A,,Clear,0,2013-03-06 12:53:00
7:53 AM,30.0,21.0,69,30.44,10.0,ENE,3.5,-,N/A,,Clear,60,2013-03-06 13:53:00
8:53 AM,33.1,19.9,59,30.48,10.0,ENE,6.9,-,N/A,,Clear,70,2013-03-06 14:53:00
9:53 AM,37.0,19.0,48,30.46,10.0,ENE,3.5,-,N/A,,Clear,70,2013-03-06 15:53:00
10:53 AM,39.9,18.0,41,30.45,10.0,SE,4.6,-,N/A,,Clear,140,2013-03-06 16:53:00
11:53 AM,44.1,17.1,34,30.42,10.0,ESE,6.9,-,N/A,,Clear,110,2013-03-06 17:53:00
12:53 PM,46.9,17.1,30,30.38,10.0,Calm,Calm,-,N/A,,Clear,0,2013-03-06 18:53:00
1:53 PM,46.9,16.0,29,30.35,10.0,Variable,3.5,-,N/A,,Clear,0,2013-03-06 19:53:00
2:53 PM,51.1,16.0,25,30.32,10.0,Variable,4.6,-,N/A,,Clear,0,2013-03-06 20:53:00
3:53 PM,51.1,17.1,26,30.29,10.0,SE,5.8,-,N/A,,Clear,140,2013-03-06 21:53:00
4:53 PM,51.1,17.1,26,30.26,10.0,ESE,8.1,-,N/A,,Clear,120,2013-03-06 22:53:00
5:53 PM,50.0,18.0,28,30.24,10.0,SE,11.5,-,N/A,,Clear,130,2013-03-06 23:53:00
6:53 PM,46.9,17.1,30,30.23,10.0,SE,8.1,-,N/A,,Clear,140,2013-03-07 00:53:00
7:53 PM,46.9,19.0,33,30.22,10.0,ESE,6.9,-,N/A,,Clear,120,2013-03-07 01:53:00
8:53 PM,46.0,19.9,35,30.22,10.0,SE,8.1,-,N/A,,Clear,130,2013-03-07 02:53:00
9:53 PM,45.0,21.9,40,30.21,10.0,ESE,9.2,-,N/A,,Clear,120,2013-03-07 03:53:00
10:53 PM,44.1,21.9,42,30.19,10.0,SE,11.5,-,N/A,,Clear,130,2013-03-07 04:53:00
11:53 PM,44.1,23.0,43,30.21,10.0,SE,5.8,-,N/A,,Clear,140,2013-03-07 05:53:00